Decoded Metar for LFKB (BASTIA in CORSE ISL.) (IATA:BIA) | Meteo·Mobile Aviation Weather
aviador You're here:

LFKB Decoded Metar

BASTIA in CORSE ISL.
Report Time2019-02-22 00:00:00
UTC Time2019-02-22 00:30:14
Flight Rules vfr VFR
Wind250° at 04 kt
W.Decomp.*RWY 16: 0.1 kt HW 4.0 kt RCW
W.Rank250° ranks 6
Current wind is below 250° avg. (4.9)
Visibility9999 m
Phenomena:N/A
Clouds:N/A
Expected CloudBase > 1,200 ft AGL from Temp-Dew spread
CeilingNone
Temp08°C (ISA -7)
Dew Point05°C (82% RH)
AAT5.5°C
QNH1028 hPa
Density Alt-1,181 ft
Elevation39 ft
Report Wrong Elevation
Raw Report
LFKB 220000Z AUTO 25004KT 190V290 CAVOK 08/05 Q1028 NOSIG=

Extra information for LFKB:More info

Metar Taf Metar & Taf Last 4 Metars F.Rules Stats Wind Profile Meteogram Temp Stats Airport Information Weather charts Add Link Nearby VenuesMetar ALERT Operation Metar Decoded Social comments